sensor_id;sensor_type;location;lat;lon;timestamp;P1;durP1;ratioP1;P2;durP2;ratioP2
52734;SDS011;38631;47.572;10.704;2023-04-06T00:01:21;17.75;;;10.23;;
52734;SDS011;38631;47.572;10.704;2023-04-06T00:03:46;16.80;;;10.20;;
52734;SDS011;38631;47.572;10.704;2023-04-06T00:06:12;19.52;;;10.18;;
52734;SDS011;38631;47.572;10.704;2023-04-06T00:08:37;17.48;;;9.75;;
52734;SDS011;38631;47.572;10.704;2023-04-06T00:11:03;14.82;;;8.45;;
52734;SDS011;38631;47.572;10.704;2023-04-06T00:13:28;21.85;;;10.45;;
52734;SDS011;38631;47.572;10.704;2023-04-06T00:15:53;15.48;;;9.57;;
52734;SDS011;38631;47.572;10.704;2023-04-06T00:18:19;14.18;;;9.60;;
52734;SDS011;38631;47.572;10.704;2023-04-06T00:20:44;16.73;;;10.25;;
52734;SDS011;38631;47.572;10.704;2023-04-06T00:23:10;14.23;;;8.98;;
52734;SDS011;38631;47.572;10.704;2023-04-06T00:25:35;17.23;;;8.98;;
52734;SDS011;38631;47.572;10.704;2023-04-06T00:28:01;15.73;;;9.80;;
52734;SDS011;38631;47.572;10.704;2023-04-06T00:30:26;13.10;;;9.40;;
52734;SDS011;38631;47.572;10.704;2023-04-06T00:32:51;14.75;;;9.85;;
52734;SDS011;38631;47.572;10.704;2023-04-06T00:35:17;17.25;;;9.90;;
52734;SDS011;38631;47.572;10.704;2023-04-06T00:37:42;17.25;;;9.13;;
52734;SDS011;38631;47.572;10.704;2023-04-06T00:40:08;18.45;;;11.30;;
52734;SDS011;38631;47.572;10.704;2023-04-06T00:42:34;18.13;;;9.55;;
52734;SDS011;38631;47.572;10.704;2023-04-06T00:45:00;15.88;;;10.57;;
52734;SDS011;38631;47.572;10.704;2023-04-06T00:47:26;15.02;;;9.32;;
52734;SDS011;38631;47.572;10.704;2023-04-06T00:49:52;15.75;;;9.18;;
52734;SDS011;38631;47.572;10.704;2023-04-06T00:52:18;14.90;;;9.15;;
52734;SDS011;38631;47.572;10.704;2023-04-06T00:54:44;14.90;;;9.50;;
52734;SDS011;38631;47.572;10.704;2023-04-06T00:57:10;16.02;;;9.68;;
52734;SDS011;38631;47.572;10.704;2023-04-06T00:59:36;16.90;;;9.18;;
52734;SDS011;38631;47.572;10.704;2023-04-06T01:02:02;15.07;;;9.35;;
52734;SDS011;38631;47.572;10.704;2023-04-06T01:04:27;14.35;;;9.43;;
52734;SDS011;38631;47.572;10.704;2023-04-06T01:06:53;14.93;;;10.20;;
52734;SDS011;38631;47.572;10.704;2023-04-06T01:09:18;12.68;;;9.10;;
52734;SDS011;38631;47.572;10.704;2023-04-06T01:11:43;17.63;;;9.77;;
52734;SDS011;38631;47.572;10.704;2023-04-06T01:14:09;18.05;;;10.55;;
52734;SDS011;38631;47.572;10.704;2023-04-06T01:16:34;14.32;;;9.63;;
52734;SDS011;38631;47.572;10.704;2023-04-06T01:19:00;14.48;;;10.13;;
52734;SDS011;38631;47.572;10.704;2023-04-06T01:21:26;13.57;;;10.05;;
52734;SDS011;38631;47.572;10.704;2023-04-06T01:23:51;16.75;;;10.02;;
52734;SDS011;38631;47.572;10.704;2023-04-06T01:26:17;15.07;;;9.70;;
52734;SDS011;38631;47.572;10.704;2023-04-06T01:28:42;13.13;;;9.52;;
52734;SDS011;38631;47.572;10.704;2023-04-06T01:31:09;16.80;;;10.38;;
52734;SDS011;38631;47.572;10.704;2023-04-06T01:33:35;19.17;;;11.10;;
52734;SDS011;38631;47.572;10.704;2023-04-06T01:36:01;14.75;;;10.52;;
52734;SDS011;38631;47.572;10.704;2023-04-06T01:38:28;14.95;;;9.98;;
52734;SDS011;38631;47.572;10.704;2023-04-06T01:40:53;16.27;;;11.00;;
52734;SDS011;38631;47.572;10.704;2023-04-06T01:43:19;14.27;;;10.00;;
52734;SDS011;38631;47.572;10.704;2023-04-06T01:45:45;16.60;;;10.32;;
52734;SDS011;38631;47.572;10.704;2023-04-06T01:48:11;14.23;;;9.73;;
52734;SDS011;38631;47.572;10.704;2023-04-06T01:50:36;16.58;;;10.25;;
52734;SDS011;38631;47.572;10.704;2023-04-06T01:53:01;16.17;;;10.40;;
52734;SDS011;38631;47.572;10.704;2023-04-06T01:55:27;14.18;;;10.63;;
52734;SDS011;38631;47.572;10.704;2023-04-06T01:57:52;17.23;;;10.70;;
52734;SDS011;38631;47.572;10.704;2023-04-06T02:00:18;15.02;;;11.05;;
52734;SDS011;38631;47.572;10.704;2023-04-06T02:02:43;14.93;;;10.15;;
52734;SDS011;38631;47.572;10.704;2023-04-06T02:05:09;13.70;;;10.32;;
52734;SDS011;38631;47.572;10.704;2023-04-06T02:07:34;16.38;;;11.20;;
52734;SDS011;38631;47.572;10.704;2023-04-06T02:10:00;14.63;;;10.52;;
52734;SDS011;38631;47.572;10.704;2023-04-06T02:12:25;14.57;;;10.60;;
52734;SDS011;38631;47.572;10.704;2023-04-06T02:14:50;13.20;;;10.10;;
52734;SDS011;38631;47.572;10.704;2023-04-06T02:17:16;16.33;;;11.07;;
52734;SDS011;38631;47.572;10.704;2023-04-06T02:19:41;16.83;;;11.57;;
52734;SDS011;38631;47.572;10.704;2023-04-06T02:22:07;21.15;;;12.68;;
52734;SDS011;38631;47.572;10.704;2023-04-06T02:24:32;20.00;;;13.02;;
52734;SDS011;38631;47.572;10.704;2023-04-06T02:26:57;22.05;;;13.20;;
52734;SDS011;38631;47.572;10.704;2023-04-06T02:29:23;19.58;;;11.95;;
52734;SDS011;38631;47.572;10.704;2023-04-06T02:31:48;18.80;;;11.73;;
52734;SDS011;38631;47.572;10.704;2023-04-06T02:34:13;19.20;;;11.75;;
52734;SDS011;38631;47.572;10.704;2023-04-06T02:36:45;23.95;;;12.15;;
52734;SDS011;38631;47.572;10.704;2023-04-06T02:39:11;14.77;;;11.05;;
52734;SDS011;38631;47.572;10.704;2023-04-06T02:41:37;16.17;;;11.50;;
52734;SDS011;38631;47.572;10.704;2023-04-06T02:44:03;17.33;;;11.40;;
52734;SDS011;38631;47.572;10.704;2023-04-06T02:46:28;15.85;;;11.32;;
52734;SDS011;38631;47.572;10.704;2023-04-06T02:48:54;16.23;;;10.43;;
52734;SDS011;38631;47.572;10.704;2023-04-06T02:51:19;15.98;;;11.10;;
52734;SDS011;38631;47.572;10.704;2023-04-06T02:53:45;15.48;;;10.77;;
52734;SDS011;38631;47.572;10.704;2023-04-06T02:56:10;15.07;;;10.65;;
52734;SDS011;38631;47.572;10.704;2023-04-06T02:58:36;12.82;;;9.82;;
52734;SDS011;38631;47.572;10.704;2023-04-06T03:01:01;13.55;;;9.10;;
52734;SDS011;38631;47.572;10.704;2023-04-06T03:03:27;15.82;;;10.80;;
52734;SDS011;38631;47.572;10.704;2023-04-06T03:05:52;14.05;;;9.25;;
52734;SDS011;38631;47.572;10.704;2023-04-06T03:08:19;12.15;;;9.32;;
52734;SDS011;38631;47.572;10.704;2023-04-06T03:10:44;12.35;;;9.10;;
52734;SDS011;38631;47.572;10.704;2023-04-06T03:13:10;15.45;;;10.05;;
52734;SDS011;38631;47.572;10.704;2023-04-06T03:15:35;16.77;;;9.88;;
52734;SDS011;38631;47.572;10.704;2023-04-06T03:18:01;14.57;;;9.70;;
52734;SDS011;38631;47.572;10.704;2023-04-06T03:20:26;15.57;;;9.85;;
52734;SDS011;38631;47.572;10.704;2023-04-06T03:22:51;15.45;;;9.07;;
52734;SDS011;38631;47.572;10.704;2023-04-06T03:25:17;15.52;;;9.18;;
52734;SDS011;38631;47.572;10.704;2023-04-06T03:27:42;13.68;;;9.68;;
52734;SDS011;38631;47.572;10.704;2023-04-06T03:30:07;13.73;;;9.50;;
52734;SDS011;38631;47.572;10.704;2023-04-06T03:32:33;14.57;;;8.95;;
52734;SDS011;38631;47.572;10.704;2023-04-06T03:34:58;11.98;;;8.60;;
52734;SDS011;38631;47.572;10.704;2023-04-06T03:37:24;19.58;;;10.30;;
52734;SDS011;38631;47.572;10.704;2023-04-06T03:39:49;13.98;;;8.38;;
52734;SDS011;38631;47.572;10.704;2023-04-06T03:42:15;12.50;;;9.45;;
52734;SDS011;38631;47.572;10.704;2023-04-06T03:44:40;11.57;;;8.60;;
52734;SDS011;38631;47.572;10.704;2023-04-06T03:47:06;10.95;;;8.40;;
52734;SDS011;38631;47.572;10.704;2023-04-06T03:49:31;12.15;;;8.90;;
52734;SDS011;38631;47.572;10.704;2023-04-06T03:51:56;14.32;;;8.75;;
52734;SDS011;38631;47.572;10.704;2023-04-06T03:54:22;13.70;;;7.90;;
52734;SDS011;38631;47.572;10.704;2023-04-06T03:56:47;12.00;;;7.95;;
52734;SDS011;38631;47.572;10.704;2023-04-06T03:59:13;12.80;;;9.05;;
52734;SDS011;38631;47.572;10.704;2023-04-06T04:01:38;11.75;;;7.53;;
52734;SDS011;38631;47.572;10.704;2023-04-06T04:04:04;13.57;;;8.68;;
52734;SDS011;38631;47.572;10.704;2023-04-06T04:06:29;13.68;;;8.50;;
52734;SDS011;38631;47.572;10.704;2023-04-06T04:08:55;11.77;;;8.20;;
52734;SDS011;38631;47.572;10.704;2023-04-06T04:11:20;12.95;;;7.78;;
52734;SDS011;38631;47.572;10.704;2023-04-06T04:13:46;10.85;;;7.68;;
52734;SDS011;38631;47.572;10.704;2023-04-06T04:16:11;9.20;;;7.47;;
52734;SDS011;38631;47.572;10.704;2023-04-06T04:18:36;11.40;;;7.63;;
52734;SDS011;38631;47.572;10.704;2023-04-06T04:21:02;15.80;;;9.02;;
52734;SDS011;38631;47.572;10.704;2023-04-06T04:23:27;12.48;;;7.78;;
52734;SDS011;38631;47.572;10.704;2023-04-06T04:25:53;13.98;;;8.95;;
52734;SDS011;38631;47.572;10.704;2023-04-06T04:28:18;14.30;;;8.55;;
52734;SDS011;38631;47.572;10.704;2023-04-06T04:30:43;10.48;;;8.82;;
52734;SDS011;38631;47.572;10.704;2023-04-06T04:33:09;11.35;;;7.60;;
52734;SDS011;38631;47.572;10.704;2023-04-06T04:35:34;13.35;;;8.50;;
52734;SDS011;38631;47.572;10.704;2023-04-06T04:38:00;10.27;;;7.85;;
52734;SDS011;38631;47.572;10.704;2023-04-06T04:40:25;10.55;;;7.32;;
52734;SDS011;38631;47.572;10.704;2023-04-06T04:42:50;11.32;;;7.95;;
52734;SDS011;38631;47.572;10.704;2023-04-06T04:45:16;10.55;;;7.97;;
52734;SDS011;38631;47.572;10.704;2023-04-06T04:47:41;9.90;;;7.47;;
52734;SDS011;38631;47.572;10.704;2023-04-06T04:50:07;14.68;;;8.75;;
52734;SDS011;38631;47.572;10.704;2023-04-06T04:52:32;11.50;;;8.10;;
52734;SDS011;38631;47.572;10.704;2023-04-06T04:54:58;18.75;;;9.15;;
52734;SDS011;38631;47.572;10.704;2023-04-06T04:57:23;14.02;;;9.40;;
52734;SDS011;38631;47.572;10.704;2023-04-06T04:59:48;13.40;;;9.15;;
52734;SDS011;38631;47.572;10.704;2023-04-06T05:02:15;15.57;;;8.88;;
52734;SDS011;38631;47.572;10.704;2023-04-06T05:04:41;14.45;;;8.30;;
52734;SDS011;38631;47.572;10.704;2023-04-06T05:07:07;12.63;;;8.95;;
52734;SDS011;38631;47.572;10.704;2023-04-06T05:09:33;13.00;;;8.75;;
52734;SDS011;38631;47.572;10.704;2023-04-06T05:11:59;11.40;;;7.88;;
52734;SDS011;38631;47.572;10.704;2023-04-06T05:14:25;11.30;;;7.88;;
52734;SDS011;38631;47.572;10.704;2023-04-06T05:16:51;12.88;;;7.72;;
52734;SDS011;38631;47.572;10.704;2023-04-06T05:19:17;12.73;;;7.97;;
52734;SDS011;38631;47.572;10.704;2023-04-06T05:21:42;11.05;;;7.47;;
52734;SDS011;38631;47.572;10.704;2023-04-06T05:24:08;9.45;;;7.38;;
52734;SDS011;38631;47.572;10.704;2023-04-06T05:26:33;11.30;;;7.80;;
52734;SDS011;38631;47.572;10.704;2023-04-06T05:28:59;11.00;;;8.02;;
52734;SDS011;38631;47.572;10.704;2023-04-06T05:31:24;14.77;;;8.60;;
52734;SDS011;38631;47.572;10.704;2023-04-06T05:33:50;10.00;;;7.47;;
52734;SDS011;38631;47.572;10.704;2023-04-06T05:36:15;12.23;;;7.95;;
52734;SDS011;38631;47.572;10.704;2023-04-06T05:38:41;14.32;;;9.13;;
52734;SDS011;38631;47.572;10.704;2023-04-06T05:41:06;15.38;;;9.50;;
52734;SDS011;38631;47.572;10.704;2023-04-06T05:43:31;15.32;;;10.38;;
52734;SDS011;38631;47.572;10.704;2023-04-06T05:45:57;21.10;;;11.70;;
52734;SDS011;38631;47.572;10.704;2023-04-06T05:48:22;17.92;;;10.07;;
52734;SDS011;38631;47.572;10.704;2023-04-06T05:50:48;14.95;;;9.95;;
52734;SDS011;38631;47.572;10.704;2023-04-06T05:53:15;17.65;;;10.98;;
52734;SDS011;38631;47.572;10.704;2023-04-06T05:55:40;19.20;;;10.50;;
52734;SDS011;38631;47.572;10.704;2023-04-06T05:58:06;18.73;;;11.18;;
52734;SDS011;38631;47.572;10.704;2023-04-06T06:00:31;16.42;;;10.82;;
52734;SDS011;38631;47.572;10.704;2023-04-06T06:02:57;14.70;;;10.38;;
52734;SDS011;38631;47.572;10.704;2023-04-06T06:05:23;14.32;;;10.18;;
52734;SDS011;38631;47.572;10.704;2023-04-06T06:07:48;14.05;;;9.82;;
52734;SDS011;38631;47.572;10.704;2023-04-06T06:10:13;14.80;;;9.95;;
52734;SDS011;38631;47.572;10.704;2023-04-06T06:12:39;12.20;;;9.40;;
52734;SDS011;38631;47.572;10.704;2023-04-06T06:15:04;15.10;;;10.70;;
52734;SDS011;38631;47.572;10.704;2023-04-06T06:17:30;15.63;;;9.43;;
52734;SDS011;38631;47.572;10.704;2023-04-06T06:19:56;12.20;;;8.15;;
52734;SDS011;38631;47.572;10.704;2023-04-06T06:22:21;18.17;;;10.60;;
52734;SDS011;38631;47.572;10.704;2023-04-06T06:24:47;9.35;;;7.93;;
52734;SDS011;38631;47.572;10.704;2023-04-06T06:27:12;10.35;;;7.30;;
52734;SDS011;38631;47.572;10.704;2023-04-06T06:29:37;11.23;;;7.53;;
52734;SDS011;38631;47.572;10.704;2023-04-06T06:32:03;10.63;;;7.70;;
52734;SDS011;38631;47.572;10.704;2023-04-06T06:34:28;11.15;;;7.50;;
52734;SDS011;38631;47.572;10.704;2023-04-06T06:36:54;11.95;;;7.85;;
52734;SDS011;38631;47.572;10.704;2023-04-06T06:39:20;9.65;;;7.28;;
52734;SDS011;38631;47.572;10.704;2023-04-06T06:41:45;12.63;;;7.85;;
52734;SDS011;38631;47.572;10.704;2023-04-06T06:44:11;14.82;;;8.73;;
52734;SDS011;38631;47.572;10.704;2023-04-06T06:46:36;13.18;;;7.28;;
52734;SDS011;38631;47.572;10.704;2023-04-06T06:49:01;13.88;;;8.65;;
52734;SDS011;38631;47.572;10.704;2023-04-06T06:51:28;10.30;;;8.15;;
52734;SDS011;38631;47.572;10.704;2023-04-06T06:53:53;11.35;;;8.57;;
52734;SDS011;38631;47.572;10.704;2023-04-06T06:56:18;15.02;;;9.23;;
52734;SDS011;38631;47.572;10.704;2023-04-06T06:58:44;12.75;;;7.70;;
52734;SDS011;38631;47.572;10.704;2023-04-06T07:01:09;10.23;;;7.63;;
52734;SDS011;38631;47.572;10.704;2023-04-06T07:03:35;11.75;;;8.68;;
52734;SDS011;38631;47.572;10.704;2023-04-06T07:06:00;10.90;;;7.85;;
52734;SDS011;38631;47.572;10.704;2023-04-06T07:08:26;13.85;;;9.38;;
52734;SDS011;38631;47.572;10.704;2023-04-06T07:10:51;12.30;;;7.72;;
52734;SDS011;38631;47.572;10.704;2023-04-06T07:13:18;9.63;;;7.03;;
52734;SDS011;38631;47.572;10.704;2023-04-06T07:15:47;12.45;;;7.63;;
52734;SDS011;38631;47.572;10.704;2023-04-06T07:18:13;9.10;;;6.75;;
52734;SDS011;38631;47.572;10.704;2023-04-06T07:20:39;12.05;;;7.40;;
52734;SDS011;38631;47.572;10.704;2023-04-06T07:23:04;9.85;;;6.50;;
52734;SDS011;38631;47.572;10.704;2023-04-06T07:25:30;8.00;;;6.15;;
52734;SDS011;38631;47.572;10.704;2023-04-06T07:27:56;8.85;;;6.53;;
52734;SDS011;38631;47.572;10.704;2023-04-06T07:30:21;10.00;;;6.68;;
52734;SDS011;38631;47.572;10.704;2023-04-06T07:32:47;7.72;;;6.38;;
52734;SDS011;38631;47.572;10.704;2023-04-06T07:35:13;7.90;;;6.13;;
52734;SDS011;38631;47.572;10.704;2023-04-06T07:37:38;8.63;;;6.45;;
52734;SDS011;38631;47.572;10.704;2023-04-06T07:40:04;11.63;;;6.28;;
52734;SDS011;38631;47.572;10.704;2023-04-06T07:42:29;8.85;;;6.45;;
52734;SDS011;38631;47.572;10.704;2023-04-06T07:44:55;7.78;;;5.85;;
52734;SDS011;38631;47.572;10.704;2023-04-06T07:47:20;11.55;;;6.93;;
52734;SDS011;38631;47.572;10.704;2023-04-06T07:49:46;7.45;;;5.97;;
52734;SDS011;38631;47.572;10.704;2023-04-06T07:52:11;8.32;;;6.25;;
52734;SDS011;38631;47.572;10.704;2023-04-06T07:54:37;8.43;;;5.57;;
52734;SDS011;38631;47.572;10.704;2023-04-06T07:57:02;8.40;;;5.82;;
52734;SDS011;38631;47.572;10.704;2023-04-06T07:59:28;7.65;;;5.47;;
52734;SDS011;38631;47.572;10.704;2023-04-06T08:01:53;7.47;;;5.88;;
52734;SDS011;38631;47.572;10.704;2023-04-06T08:04:20;7.78;;;6.07;;
52734;SDS011;38631;47.572;10.704;2023-04-06T08:06:45;8.65;;;6.50;;
52734;SDS011;38631;47.572;10.704;2023-04-06T08:09:10;10.00;;;6.88;;
52734;SDS011;38631;47.572;10.704;2023-04-06T08:11:36;9.52;;;7.30;;
52734;SDS011;38631;47.572;10.704;2023-04-06T08:14:01;11.27;;;7.05;;
52734;SDS011;38631;47.572;10.704;2023-04-06T08:16:27;11.05;;;7.32;;
52734;SDS011;38631;47.572;10.704;2023-04-06T08:18:52;8.60;;;6.35;;
52734;SDS011;38631;47.572;10.704;2023-04-06T08:21:17;8.30;;;5.93;;
52734;SDS011;38631;47.572;10.704;2023-04-06T08:23:43;9.35;;;6.72;;
52734;SDS011;38631;47.572;10.704;2023-04-06T08:26:08;7.53;;;5.55;;
52734;SDS011;38631;47.572;10.704;2023-04-06T08:28:34;10.35;;;5.97;;
52734;SDS011;38631;47.572;10.704;2023-04-06T08:31:06;8.70;;;5.65;;
52734;SDS011;38631;47.572;10.704;2023-04-06T08:33:32;8.13;;;6.13;;
52734;SDS011;38631;47.572;10.704;2023-04-06T08:36:10;7.65;;;5.55;;
52734;SDS011;38631;47.572;10.704;2023-04-06T08:38:37;7.82;;;5.55;;
52734;SDS011;38631;47.572;10.704;2023-04-06T08:41:12;10.10;;;5.97;;
52734;SDS011;38631;47.572;10.704;2023-04-06T08:43:58;11.23;;;5.57;;
52734;SDS011;38631;47.572;10.704;2023-04-06T08:46:24;9.00;;;5.53;;
52734;SDS011;38631;47.572;10.704;2023-04-06T08:48:54;8.20;;;5.20;;
52734;SDS011;38631;47.572;10.704;2023-04-06T08:51:21;8.85;;;5.88;;
52734;SDS011;38631;47.572;10.704;2023-04-06T08:53:49;8.45;;;5.85;;
52734;SDS011;38631;47.572;10.704;2023-04-06T08:56:14;10.23;;;5.22;;
52734;SDS011;38631;47.572;10.704;2023-04-06T08:58:40;7.30;;;5.90;;
52734;SDS011;38631;47.572;10.704;2023-04-06T09:01:07;7.50;;;5.75;;
52734;SDS011;38631;47.572;10.704;2023-04-06T09:03:38;7.05;;;5.72;;
52734;SDS011;38631;47.572;10.704;2023-04-06T09:06:05;6.50;;;5.63;;
52734;SDS011;38631;47.572;10.704;2023-04-06T09:08:32;8.23;;;5.78;;
52734;SDS011;38631;47.572;10.704;2023-04-06T09:13:27;8.23;;;6.13;;
52734;SDS011;38631;47.572;10.704;2023-04-06T09:16:04;12.70;;;6.15;;
52734;SDS011;38631;47.572;10.704;2023-04-06T09:18:32;8.73;;;6.90;;
52734;SDS011;38631;47.572;10.704;2023-04-06T09:21:02;8.57;;;6.80;;
52734;SDS011;38631;47.572;10.704;2023-04-06T09:23:29;8.55;;;6.22;;
52734;SDS011;38631;47.572;10.704;2023-04-06T09:26:10;11.93;;;6.25;;
52734;SDS011;38631;47.572;10.704;2023-04-06T09:28:43;10.27;;;7.43;;
52734;SDS011;38631;47.572;10.704;2023-04-06T09:31:13;9.02;;;6.28;;
52734;SDS011;38631;47.572;10.704;2023-04-06T09:33:40;7.72;;;6.40;;
52734;SDS011;38631;47.572;10.704;2023-04-06T09:36:07;8.85;;;7.00;;
52734;SDS011;38631;47.572;10.704;2023-04-06T09:38:36;8.23;;;6.60;;
52734;SDS011;38631;47.572;10.704;2023-04-06T09:41:02;7.90;;;6.20;;
52734;SDS011;38631;47.572;10.704;2023-04-06T09:43:28;10.10;;;6.28;;
52734;SDS011;38631;47.572;10.704;2023-04-06T09:45:55;8.25;;;5.88;;
52734;SDS011;38631;47.572;10.704;2023-04-06T09:48:21;8.02;;;5.43;;
52734;SDS011;38631;47.572;10.704;2023-04-06T09:50:49;8.32;;;6.22;;
52734;SDS011;38631;47.572;10.704;2023-04-06T09:53:19;11.48;;;6.45;;
52734;SDS011;38631;47.572;10.704;2023-04-06T09:55:45;6.60;;;5.20;;
52734;SDS011;38631;47.572;10.704;2023-04-06T09:58:13;8.38;;;5.50;;
52734;SDS011;38631;47.572;10.704;2023-04-06T10:00:47;9.55;;;5.47;;
52734;SDS011;38631;47.572;10.704;2023-04-06T10:05:57;6.47;;;4.75;;
52734;SDS011;38631;47.572;10.704;2023-04-06T10:08:29;5.65;;;4.93;;
52734;SDS011;38631;47.572;10.704;2023-04-06T10:10:56;8.73;;;5.25;;
52734;SDS011;38631;47.572;10.704;2023-04-06T10:13:23;8.43;;;5.13;;
52734;SDS011;38631;47.572;10.704;2023-04-06T10:15:49;6.35;;;4.85;;
52734;SDS011;38631;47.572;10.704;2023-04-06T10:18:16;10.23;;;6.28;;
52734;SDS011;38631;47.572;10.704;2023-04-06T10:20:43;8.32;;;5.38;;
52734;SDS011;38631;47.572;10.704;2023-04-06T10:23:19;9.90;;;5.80;;
52734;SDS011;38631;47.572;10.704;2023-04-06T10:25:59;9.07;;;5.53;;
52734;SDS011;38631;47.572;10.704;2023-04-06T10:28:30;8.32;;;5.43;;
52734;SDS011;38631;47.572;10.704;2023-04-06T10:30:57;9.27;;;5.57;;
52734;SDS011;38631;47.572;10.704;2023-04-06T10:33:24;8.60;;;5.75;;
52734;SDS011;38631;47.572;10.704;2023-04-06T10:35:49;8.07;;;5.68;;
52734;SDS011;38631;47.572;10.704;2023-04-06T10:38:14;7.85;;;5.68;;
52734;SDS011;38631;47.572;10.704;2023-04-06T10:40:44;7.05;;;5.70;;
52734;SDS011;38631;47.572;10.704;2023-04-06T10:45:57;9.25;;;6.35;;
52734;SDS011;38631;47.572;10.704;2023-04-06T10:48:35;9.63;;;5.35;;
52734;SDS011;38631;47.572;10.704;2023-04-06T10:51:11;7.05;;;6.10;;
52734;SDS011;38631;47.572;10.704;2023-04-06T10:53:59;7.72;;;5.72;;
52734;SDS011;38631;47.572;10.704;2023-04-06T10:56:30;10.50;;;5.95;;
52734;SDS011;38631;47.572;10.704;2023-04-06T10:58:59;10.70;;;5.90;;
52734;SDS011;38631;47.572;10.704;2023-04-06T11:01:25;8.32;;;5.68;;
52734;SDS011;38631;47.572;10.704;2023-04-06T11:03:53;8.80;;;5.68;;
52734;SDS011;38631;47.572;10.704;2023-04-06T11:08:45;10.45;;;5.93;;
52734;SDS011;38631;47.572;10.704;2023-04-06T11:11:12;7.90;;;6.10;;
52734;SDS011;38631;47.572;10.704;2023-04-06T11:13:49;6.65;;;4.93;;
52734;SDS011;38631;47.572;10.704;2023-04-06T11:18:50;7.60;;;5.00;;
52734;SDS011;38631;47.572;10.704;2023-04-06T11:21:30;6.38;;;4.93;;
52734;SDS011;38631;47.572;10.704;2023-04-06T11:24:31;7.75;;;5.35;;
52734;SDS011;38631;47.572;10.704;2023-04-06T11:26:51;7.50;;;5.40;;
52734;SDS011;38631;47.572;10.704;2023-04-06T11:29:22;7.95;;;4.50;;
52734;SDS011;38631;47.572;10.704;2023-04-06T11:34:18;6.68;;;5.30;;
52734;SDS011;38631;47.572;10.704;2023-04-06T11:36:45;8.02;;;5.38;;
52734;SDS011;38631;47.572;10.704;2023-04-06T11:39:19;9.05;;;5.85;;
52734;SDS011;38631;47.572;10.704;2023-04-06T11:41:48;8.20;;;5.32;;
52734;SDS011;38631;47.572;10.704;2023-04-06T11:44:39;7.43;;;5.72;;
52734;SDS011;38631;47.572;10.704;2023-04-06T11:47:08;7.22;;;5.40;;
52734;SDS011;38631;47.572;10.704;2023-04-06T11:49:38;13.70;;;6.15;;
52734;SDS011;38631;47.572;10.704;2023-04-06T11:55:09;7.65;;;5.88;;
52734;SDS011;38631;47.572;10.704;2023-04-06T11:57:42;8.60;;;5.72;;
52734;SDS011;38631;47.572;10.704;2023-04-06T12:00:08;7.35;;;5.25;;
52734;SDS011;38631;47.572;10.704;2023-04-06T12:02:35;6.18;;;5.30;;
52734;SDS011;38631;47.572;10.704;2023-04-06T12:05:02;9.25;;;5.45;;
52734;SDS011;38631;47.572;10.704;2023-04-06T12:07:29;6.65;;;5.45;;
52734;SDS011;38631;47.572;10.704;2023-04-06T12:09:55;7.00;;;4.88;;
52734;SDS011;38631;47.572;10.704;2023-04-06T12:12:20;6.75;;;5.15;;
52734;SDS011;38631;47.572;10.704;2023-04-06T12:14:46;9.40;;;6.00;;
52734;SDS011;38631;47.572;10.704;2023-04-06T12:17:11;7.95;;;5.57;;
52734;SDS011;38631;47.572;10.704;2023-04-06T12:19:36;8.18;;;4.80;;
52734;SDS011;38631;47.572;10.704;2023-04-06T12:22:02;6.72;;;5.28;;
52734;SDS011;38631;47.572;10.704;2023-04-06T12:24:28;5.72;;;4.72;;
52734;SDS011;38631;47.572;10.704;2023-04-06T12:26:53;6.95;;;5.13;;
52734;SDS011;38631;47.572;10.704;2023-04-06T12:29:19;6.82;;;5.05;;
52734;SDS011;38631;47.572;10.704;2023-04-06T12:31:45;7.85;;;5.55;;
52734;SDS011;38631;47.572;10.704;2023-04-06T12:34:10;6.28;;;5.10;;
52734;SDS011;38631;47.572;10.704;2023-04-06T12:36:36;7.53;;;4.97;;
52734;SDS011;38631;47.572;10.704;2023-04-06T12:39:02;6.90;;;5.20;;
52734;SDS011;38631;47.572;10.704;2023-04-06T12:41:28;8.82;;;5.53;;
52734;SDS011;38631;47.572;10.704;2023-04-06T12:43:54;8.40;;;5.63;;
52734;SDS011;38631;47.572;10.704;2023-04-06T12:46:20;7.80;;;5.28;;
52734;SDS011;38631;47.572;10.704;2023-04-06T12:48:46;7.10;;;5.57;;
52734;SDS011;38631;47.572;10.704;2023-04-06T12:51:11;7.05;;;4.95;;
52734;SDS011;38631;47.572;10.704;2023-04-06T12:53:37;5.03;;;4.10;;
52734;SDS011;38631;47.572;10.704;2023-04-06T12:56:09;6.13;;;4.97;;
52734;SDS011;38631;47.572;10.704;2023-04-06T12:58:37;9.98;;;5.90;;
52734;SDS011;38631;47.572;10.704;2023-04-06T13:01:05;8.90;;;4.95;;
52734;SDS011;38631;47.572;10.704;2023-04-06T13:03:31;7.22;;;4.82;;
52734;SDS011;38631;47.572;10.704;2023-04-06T13:05:58;7.95;;;5.03;;
52734;SDS011;38631;47.572;10.704;2023-04-06T13:08:24;7.25;;;5.18;;
52734;SDS011;38631;47.572;10.704;2023-04-06T13:10:50;11.93;;;5.75;;
52734;SDS011;38631;47.572;10.704;2023-04-06T13:13:26;6.07;;;4.65;;
52734;SDS011;38631;47.572;10.704;2023-04-06T13:15:53;6.25;;;4.80;;
52734;SDS011;38631;47.572;10.704;2023-04-06T13:18:20;6.25;;;4.90;;
52734;SDS011;38631;47.572;10.704;2023-04-06T13:20:47;6.90;;;5.00;;
52734;SDS011;38631;47.572;10.704;2023-04-06T13:23:13;8.07;;;4.90;;
52734;SDS011;38631;47.572;10.704;2023-04-06T13:25:38;7.63;;;5.22;;
52734;SDS011;38631;47.572;10.704;2023-04-06T13:28:04;7.13;;;5.05;;
52734;SDS011;38631;47.572;10.704;2023-04-06T13:30:29;5.93;;;4.70;;
52734;SDS011;38631;47.572;10.704;2023-04-06T13:32:55;5.95;;;4.30;;
52734;SDS011;38631;47.572;10.704;2023-04-06T13:35:20;6.55;;;5.32;;
52734;SDS011;38631;47.572;10.704;2023-04-06T13:37:46;6.43;;;4.55;;
52734;SDS011;38631;47.572;10.704;2023-04-06T13:40:11;7.45;;;5.28;;
52734;SDS011;38631;47.572;10.704;2023-04-06T13:42:37;7.80;;;5.25;;
52734;SDS011;38631;47.572;10.704;2023-04-06T13:45:05;6.80;;;4.35;;
52734;SDS011;38631;47.572;10.704;2023-04-06T13:47:30;6.45;;;4.68;;
52734;SDS011;38631;47.572;10.704;2023-04-06T13:49:56;8.05;;;5.32;;
52734;SDS011;38631;47.572;10.704;2023-04-06T13:52:21;5.65;;;4.30;;
52734;SDS011;38631;47.572;10.704;2023-04-06T13:54:47;6.50;;;4.30;;
52734;SDS011;38631;47.572;10.704;2023-04-06T13:57:13;5.82;;;4.47;;
52734;SDS011;38631;47.572;10.704;2023-04-06T13:59:39;7.38;;;5.65;;
52734;SDS011;38631;47.572;10.704;2023-04-06T14:02:05;7.82;;;4.40;;
52734;SDS011;38631;47.572;10.704;2023-04-06T14:04:31;10.48;;;4.45;;
52734;SDS011;38631;47.572;10.704;2023-04-06T14:06:58;5.97;;;4.88;;
52734;SDS011;38631;47.572;10.704;2023-04-06T14:09:25;7.18;;;4.68;;
52734;SDS011;38631;47.572;10.704;2023-04-06T14:11:51;5.22;;;4.30;;
52734;SDS011;38631;47.572;10.704;2023-04-06T14:14:17;7.45;;;4.53;;
52734;SDS011;38631;47.572;10.704;2023-04-06T14:16:43;5.97;;;4.18;;
52734;SDS011;38631;47.572;10.704;2023-04-06T14:19:12;5.50;;;4.00;;
52734;SDS011;38631;47.572;10.704;2023-04-06T14:21:40;8.32;;;4.72;;
52734;SDS011;38631;47.572;10.704;2023-04-06T14:24:07;7.18;;;4.00;;
52734;SDS011;38631;47.572;10.704;2023-04-06T14:26:33;6.70;;;4.45;;
52734;SDS011;38631;47.572;10.704;2023-04-06T14:29:02;7.97;;;5.10;;
52734;SDS011;38631;47.572;10.704;2023-04-06T14:31:29;5.59;;;4.25;;
52734;SDS011;38631;47.572;10.704;2023-04-06T14:33:55;10.10;;;4.68;;
52734;SDS011;38631;47.572;10.704;2023-04-06T14:36:21;7.35;;;4.55;;
52734;SDS011;38631;47.572;10.704;2023-04-06T14:38:46;6.45;;;4.57;;
52734;SDS011;38631;47.572;10.704;2023-04-06T14:41:15;5.80;;;4.25;;